Tenerife > ESTACION METEOROLÓGICA Valle Grande - Santa Cruz de Tenerife

DATOS ACTUALES Online

Ultima actulizacion 31 minutos

18.9 ºC

Temperatura

42

Humedad (%)

990.03

Presión (mb)

0

Precipitación (mm)

16.7 NO

Viento (Km/h)

DATOS DIARIOS

Temperatura últimas 24 horas (ºC)

Humedad últimas 24 horas (%)

Presión atmosférica últimas 24 horas (mb)

Precipitaciones últimas 23 horas (mm)

Viento últimas 24 horas (Km/h)

Hora Temperatura (°C) ºC Precipitación (mm) mm Presión (mb) mb Humedad (%) % Viento (Km/h) km/h
19 - 10:00 15.9 0 991 83 27.7 O
19 - 11:00 16.3 0 990 80 35.2 O
19 - 12:00 16.1 0 990 81 32.5 O
19 - 13:00 16.4 0 989 79 30.9 O
19 - 14:00 16.4 0 989 80 24.5 O
19 - 15:00 16.3 0 989 81 22.1 O
19 - 16:00 16.1 0 988 81 32.3 O
19 - 17:00 16 0 988 81 23.9 SO
19 - 18:00 16 0 989 80 17.5 O
19 - 19:00 15.8 0 989 82 13 O
19 - 20:00 15.9 0 990 81 10.5 O
19 - 21:00 15.5 0 991 78 7.3 W
19 - 22:00 15.8 0 991 58 6.8 SW
19 - 23:00 16.8 0 991 45 10.1 W
20 - 00:00 17.2 0 991 43 10.2 NW
20 - 01:00 18.1 0 990 42 9.6 N
20 - 02:00 18.1 0 989 44 10.5 N
20 - 03:00 18.3 0 989 44 15.6 NO
20 - 04:00 18 0 989 46 15.2 N
20 - 05:00 17.9 0 989 46 9 N
20 - 06:00 17.7 0 989 48 9.9 N
20 - 07:00 17.6 0 989 51 12.9 N
20 - 08:00 18.3 0 990 45 12.3 NO
20 - 09:00 18.9 0 990 42 16.7 NO
20 - 10:00
Apalmet utiliza cookies propias y de terceros para mejorar la usabilidad y la experiencia web. Política de cookies.